Time;durP1;ratioP1;P1;durP2;ratioP2;P2;SDS_P1;SDS_P2;PMS_P1;PMS_P2;Temp;Humidity;BMP_temperature;BMP_pressure;BME280_temperature;BME280_humidity;BME280_pressure;Samples;Min_cycle;Max_cycle;Signal;HPM_P1;HPM_P2
2024/01/09 00:00:58;;;;;;;4.15;3.75;;;17.40;55.20;;;;;;5092700;28;20177;-69
2024/01/09 00:03:23;;;;;;;3.85;3.25;;;17.40;55.00;;;;;;5093891;28;20227;-69
2024/01/09 00:05:49;;;;;;;3.17;2.88;;;17.40;55.00;;;;;;5091613;28;20693;-69
2024/01/09 00:08:15;;;;;;;3.53;3.22;;;17.40;55.00;;;;;;5081770;28;20229;-69
2024/01/09 00:10:40;;;;;;;3.60;3.30;;;17.40;55.10;;;;;;5076973;28;20193;-70
2024/01/09 00:13:06;;;;;;;3.53;3.25;;;17.40;55.00;;;;;;5078597;28;20192;-69
2024/01/09 00:15:32;;;;;;;3.95;3.65;;;17.40;55.00;;;;;;5076911;28;20434;-69
2024/01/09 00:17:58;;;;;;;3.72;3.35;;;17.40;55.10;;;;;;5079269;28;20191;-69
2024/01/09 00:20:24;;;;;;;3.58;3.28;;;17.40;55.10;;;;;;5086403;28;20192;-69
2024/01/09 00:22:51;;;;;;;3.50;3.20;;;17.40;55.00;;;;;;5091273;28;20185;-69
2024/01/09 00:25:18;;;;;;;3.92;3.63;;;17.40;55.00;;;;;;5092344;28;20208;-69
2024/01/09 00:27:47;;;;;;;3.67;3.38;;;17.40;55.10;;;;;;5095840;28;20189;-70
2024/01/09 00:30:13;;;;;;;4.03;3.60;;;17.40;55.10;;;;;;5102874;28;20197;-69
2024/01/09 00:32:39;;;;;;;4.00;3.70;;;17.40;55.00;;;;;;5102917;28;20185;-69
2024/01/09 00:35:06;;;;;;;3.53;3.17;;;17.50;55.00;;;;;;5074069;28;20209;-69
2024/01/09 00:37:32;;;;;;;3.95;3.60;;;17.40;55.00;;;;;;5103540;28;20181;-69
2024/01/09 00:39:57;;;;;;;3.88;3.17;;;17.40;55.00;;;;;;5076776;28;20179;-69
2024/01/09 00:42:23;;;;;;;3.85;3.55;;;17.40;55.00;;;;;;5090623;28;20184;-68
2024/01/09 00:44:49;;;;;;;3.97;3.50;;;17.40;55.00;;;;;;5092646;28;20213;-68
2024/01/09 00:47:15;;;;;;;3.92;3.63;;;17.40;54.90;;;;;;5103365;28;20196;-68
2024/01/09 00:49:44;;;;;;;3.65;3.38;;;17.40;54.90;;;;;;5090771;28;20193;-69
2024/01/09 00:52:10;;;;;;;3.47;3.22;;;17.40;55.00;;;;;;5082882;28;20655;-68
2024/01/09 00:54:36;;;;;;;4.15;3.75;;;17.40;55.00;;;;;;5091830;28;20262;-68
2024/01/09 00:57:02;;;;;;;3.92;3.53;;;17.40;54.90;;;;;;5091053;28;20185;-68
2024/01/09 00:59:27;;;;;;;3.55;3.25;;;17.40;55.50;;;;;;5090681;28;20210;-69
2024/01/09 01:01:53;;;;;;;3.67;3.38;;;17.40;54.90;;;;;;5073664;28;20211;-68
2024/01/09 01:04:19;;;;;;;3.65;3.35;;;17.40;54.90;;;;;;5092754;28;20208;-68
2024/01/09 01:06:45;;;;;;;3.88;3.58;;;17.40;54.90;;;;;;5087675;28;20189;-69
2024/01/09 01:09:12;;;;;;;3.80;3.50;;;17.40;54.90;;;;;;5086083;28;20189;-68
2024/01/09 01:11:38;;;;;;;4.05;3.67;;;17.40;54.80;;;;;;5091137;28;20280;-68
2024/01/09 01:14:04;;;;;;;3.85;3.40;;;17.40;54.80;;;;;;5099185;28;20216;-68
2024/01/09 01:16:30;;;;;;;4.18;3.80;;;17.40;54.90;;;;;;5073725;28;20212;-68
2024/01/09 01:18:56;;;;;;;4.18;3.80;;;17.40;54.80;;;;;;5073820;28;20181;-69
2024/01/09 01:21:23;;;;;;;4.28;3.88;;;17.40;54.90;;;;;;5090492;28;20180;-68
2024/01/09 01:23:49;;;;;;;3.42;3.13;;;17.40;54.80;;;;;;5083027;28;20269;-69
2024/01/09 01:26:15;;;;;;;4.22;3.83;;;17.40;54.80;;;;;;5109661;28;20185;-69
2024/01/09 01:28:42;;;;;;;3.63;3.33;;;17.40;54.90;;;;;;5097303;28;20272;-68
2024/01/09 01:31:08;;;;;;;4.05;3.65;;;17.40;54.80;;;;;;5095914;28;20192;-68
2024/01/09 01:33:33;;;;;;;4.20;3.80;;;17.40;54.90;;;;;;5095638;28;20256;-69
2024/01/09 01:35:59;;;;;;;3.60;3.30;;;17.40;54.80;;;;;;5079002;28;20234;-68
2024/01/09 01:38:25;;;;;;;4.00;3.60;;;17.40;54.80;;;;;;5109587;28;20177;-68
2024/01/09 01:40:51;;;;;;;4.00;3.70;;;17.40;54.80;;;;;;5093835;28;20181;-68
2024/01/09 01:43:17;;;;;;;3.90;3.60;;;17.40;54.80;;;;;;5109347;28;20188;-67
2024/01/09 01:45:43;;;;;;;4.13;3.83;;;17.40;54.80;;;;;;5109248;28;20267;-68
2024/01/09 01:48:10;;;;;;;3.90;3.60;;;17.40;54.80;;;;;;5076962;28;20255;-68
2024/01/09 01:50:38;;;;;;;3.95;3.58;;;17.40;54.80;;;;;;5093807;28;20243;-68
2024/01/09 01:53:07;;;;;;;3.88;3.58;;;17.40;54.80;;;;;;5079737;28;20286;-68
2024/01/09 01:55:34;;;;;;;4.40;4.00;;;17.40;54.80;;;;;;5079640;28;20205;-68
2024/01/09 01:58:02;;;;;;;3.85;3.55;;;17.40;54.80;;;;;;5092490;28;20208;-70
2024/01/09 02:00:29;;;;;;;4.18;3.78;;;17.40;54.80;;;;;;5106841;28;20177;-68
2024/01/09 02:02:55;;;;;;;4.20;3.80;;;17.40;54.80;;;;;;5077726;28;20271;-68
2024/01/09 02:05:24;;;;;;;4.00;3.70;;;17.40;54.80;;;;;;5091312;28;20201;-68
2024/01/09 02:07:53;;;;;;;4.00;3.70;;;17.40;54.70;;;;;;5103219;28;20325;-69
2024/01/09 02:10:23;;;;;;;3.90;3.60;;;17.40;54.80;;;;;;5089547;28;20220;-69
2024/01/09 02:12:49;;;;;;;4.50;4.10;;;17.40;54.80;;;;;;5095643;28;20182;-68
2024/01/09 02:15:16;;;;;;;4.20;3.83;;;17.40;54.80;;;;;;5077513;28;20220;-68
2024/01/09 02:17:42;;;;;;;4.20;3.80;;;17.40;54.80;;;;;;5074882;28;20215;-68
2024/01/09 02:20:09;;;;;;;4.22;3.83;;;17.40;54.60;;;;;;5085200;28;20204;-69
2024/01/09 02:22:35;;;;;;;3.97;3.67;;;17.40;54.80;;;;;;5109545;28;20249;-69
2024/01/09 02:25:03;;;;;;;4.10;3.70;;;17.40;54.70;;;;;;5085912;28;20265;-69
2024/01/09 02:27:47;;;;;;;3.97;3.65;;;17.40;54.60;;;;;;5108819;28;20177;-69
2024/01/09 02:30:13;;;;;;;4.43;4.00;;;17.40;54.60;;;;;;5074789;28;20184;-69
2024/01/09 02:32:39;;;;;;;4.35;3.97;;;17.40;54.70;;;;;;5098349;28;20211;-69
2024/01/09 02:35:05;;;;;;;4.60;4.20;;;17.40;54.60;;;;;;5077287;28;20635;-68
2024/01/09 02:37:31;;;;;;;4.80;4.40;;;17.40;54.60;;;;;;5101581;28;20192;-69
2024/01/09 02:40:01;;;;;;;4.35;3.95;;;17.40;54.60;;;;;;5101652;28;20192;-69
2024/01/09 02:42:27;;;;;;;4.07;3.78;;;17.40;54.70;;;;;;5103395;28;20204;-68
2024/01/09 02:44:56;;;;;;;4.53;4.13;;;17.40;54.60;;;;;;5109303;28;20299;-68
2024/01/09 02:47:23;;;;;;;4.00;3.70;;;17.40;54.70;;;;;;5088338;28;20255;-68
2024/01/09 02:49:48;;;;;;;4.03;3.70;;;17.40;54.60;;;;;;5099153;28;20188;-69
2024/01/09 02:52:16;;;;;;;4.40;4.00;;;17.40;54.60;;;;;;5093357;28;20181;-69
2024/01/09 02:54:42;;;;;;;4.47;4.07;;;17.40;54.60;;;;;;5087571;28;20204;-69
2024/01/09 02:57:10;;;;;;;4.35;3.95;;;17.40;54.60;;;;;;5093141;28;20199;-68
2024/01/09 02:59:36;;;;;;;4.28;3.97;;;17.40;54.60;;;;;;5092688;28;20180;-68
2024/01/09 03:02:01;;;;;;;4.32;3.92;;;17.40;54.60;;;;;;5075184;28;20249;-68
2024/01/09 03:04:27;;;;;;;4.60;4.20;;;17.40;54.60;;;;;;5093664;28;20204;-68
2024/01/09 03:06:53;;;;;;;4.30;3.90;;;17.40;54.60;;;;;;5090781;28;20200;-69
2024/01/09 03:09:19;;;;;;;4.28;3.83;;;17.40;54.60;;;;;;5100700;28;20200;-68
2024/01/09 03:11:44;;;;;;;4.43;4.03;;;17.40;54.50;;;;;;5108528;28;20188;-69
2024/01/09 03:14:11;;;;;;;3.80;3.50;;;17.40;54.50;;;;;;5091873;28;20212;-68
2024/01/09 03:16:37;;;;;;;4.50;4.10;;;17.40;54.40;;;;;;5092788;28;20191;-69
2024/01/09 03:19:02;;;;;;;4.97;4.47;;;17.40;54.40;;;;;;5075993;28;20188;-69
2024/01/09 03:21:28;;;;;;;4.50;4.00;;;17.30;54.40;;;;;;5092221;28;20233;-68
2024/01/09 03:23:54;;;;;;;4.40;4.00;;;17.30;54.40;;;;;;5093290;28;20212;-68
2024/01/09 03:26:21;;;;;;;4.75;4.15;;;17.40;54.40;;;;;;5089310;28;20192;-68
2024/01/09 03:28:47;;;;;;;4.40;4.00;;;17.40;54.40;;;;;;5093057;28;20637;-69
2024/01/09 03:31:23;;;;;;;4.80;4.40;;;17.40;54.40;;;;;;5092132;28;20185;-68
2024/01/09 03:33:50;;;;;;;4.45;4.05;;;17.40;54.50;;;;;;5091534;28;20200;-68
2024/01/09 03:36:17;;;;;;;4.80;3.97;;;17.40;54.40;;;;;;5092218;28;20193;-68
2024/01/09 03:38:45;;;;;;;4.68;4.28;;;17.40;54.40;;;;;;5108777;28;20264;-68
2024/01/09 03:41:11;;;;;;;4.70;4.13;;;17.40;54.50;;;;;;5080171;28;20672;-69
2024/01/09 03:43:37;;;;;;;4.70;4.28;;;17.30;54.30;;;;;;5087190;28;20236;-68
2024/01/09 03:46:03;;;;;;;4.47;4.07;;;17.30;54.50;;;;;;5093665;28;20184;-69
2024/01/09 03:48:29;;;;;;;4.80;4.28;;;17.30;54.30;;;;;;5079841;28;20184;-69
2024/01/09 03:50:55;;;;;;;4.60;4.20;;;17.30;54.90;;;;;;5099529;28;20188;-68
2024/01/09 03:53:21;;;;;;;5.10;4.60;;;;;;;;;;5098942;28;20322;-69
2024/01/09 03:55:47;;;;;;;4.60;4.20;;;17.40;54.10;;;;;;5096400;28;20205;-66
2024/01/09 03:58:13;;;;;;;4.40;4.05;;;17.30;54.40;;;;;;5091313;28;20191;-68
2024/01/09 04:00:39;;;;;;;4.60;4.20;;;17.40;54.40;;;;;;5105044;28;20185;-69
2024/01/09 04:03:05;;;;;;;4.70;4.30;;;17.30;54.30;;;;;;5090532;28;20184;-69
2024/01/09 04:05:31;;;;;;;4.82;4.32;;;17.30;54.60;;;;;;5074464;28;20191;-69
2024/01/09 04:07:58;;;;;;;5.00;4.35;;;17.40;54.30;;;;;;5091965;28;20292;-69
2024/01/09 04:10:24;;;;;;;5.65;4.65;;;17.30;54.20;;;;;;5091435;28;20193;-69
2024/01/09 04:12:50;;;;;;;4.30;3.90;;;17.30;54.20;;;;;;5089066;28;20235;-69
2024/01/09 04:15:16;;;;;;;4.70;4.30;;;17.40;54.30;;;;;;5091225;28;20201;-69
2024/01/09 04:17:41;;;;;;;4.55;4.15;;;17.40;54.50;;;;;;5090874;28;20234;-69
2024/01/09 04:20:12;;;;;;;5.05;4.65;;;17.40;55.00;;;;;;5106285;28;20181;-70
2024/01/09 04:22:38;;;;;;;4.47;4.03;;;;;;;;;;5105594;28;20210;-69
2024/01/09 04:25:05;;;;;;;4.70;4.28;;;17.40;53.80;;;;;;5090781;28;20205;-69
2024/01/09 04:27:30;;;;;;;4.47;4.07;;;17.40;54.30;;;;;;5099000;28;20181;-69
2024/01/09 04:29:56;;;;;;;5.15;4.38;;;17.40;54.20;;;;;;5089395;28;20196;-69
2024/01/09 04:32:22;;;;;;;5.10;4.32;;;17.40;54.40;;;;;;5103122;28;20285;-69
2024/01/09 04:34:48;;;;;;;4.80;4.30;;;17.30;54.10;;;;;;5093651;28;20213;-69
2024/01/09 04:37:13;;;;;;;4.82;4.43;;;17.30;54.30;;;;;;5109324;28;20193;-69
2024/01/09 04:39:39;;;;;;;4.68;4.28;;;17.30;54.30;;;;;;5078077;28;20173;-69
2024/01/09 04:42:05;;;;;;;4.68;4.28;;;17.30;54.30;;;;;;5075699;28;20192;-68
2024/01/09 04:44:31;;;;;;;4.95;4.45;;;17.30;54.80;;;;;;5084637;28;20692;-69
2024/01/09 04:46:56;;;;;;;5.00;4.60;;;17.30;54.20;;;;;;5075200;28;20185;-69
2024/01/09 04:49:23;;;;;;;4.65;4.15;;;17.30;54.20;;;;;;5081276;28;20192;-68
2024/01/09 04:51:50;;;;;;;4.78;4.28;;;17.30;54.20;;;;;;5100134;28;20206;-69
2024/01/09 04:54:15;;;;;;;4.82;4.43;;;17.30;54.20;;;;;;5094126;28;20319;-69
2024/01/09 04:56:43;;;;;;;5.53;5.03;;;17.30;54.10;;;;;;5126371;27;20263;-68
2024/01/09 04:59:09;;;;;;;4.55;4.15;;;17.30;54.10;;;;;;5106387;28;20181;-69
2024/01/09 05:01:35;;;;;;;5.50;5.00;;;17.30;54.00;;;;;;5090528;28;20189;-69
2024/01/09 05:04:01;;;;;;;4.95;4.45;;;17.30;54.10;;;;;;5073568;28;20217;-69
2024/01/09 05:06:26;;;;;;;5.57;4.82;;;17.30;54.00;;;;;;5092758;28;20172;-69
2024/01/09 05:08:52;;;;;;;4.95;4.47;;;17.30;54.00;;;;;;5091606;28;20605;-69
2024/01/09 05:11:18;;;;;;;4.95;4.45;;;17.30;54.00;;;;;;5097509;28;20206;-68
2024/01/09 05:13:44;;;;;;;5.30;4.68;;;17.30;54.00;;;;;;5097076;28;20268;-68
2024/01/09 05:16:09;;;;;;;5.28;4.78;;;17.30;54.00;;;;;;5091677;28;20178;-69
2024/01/09 05:18:35;;;;;;;4.68;4.28;;;17.30;54.00;;;;;;5101104;28;20199;-68
2024/01/09 05:21:02;;;;;;;4.70;4.30;;;17.30;53.90;;;;;;5091105;28;20187;-69
2024/01/09 05:23:28;;;;;;;4.75;4.35;;;17.30;54.50;;;;;;5114415;28;20200;-69
2024/01/09 05:25:54;;;;;;;5.38;4.88;;;17.30;54.20;;;;;;5097315;28;20215;-69
2024/01/09 05:28:19;;;;;;;5.00;4.50;;;17.30;54.20;;;;;;5083897;28;20184;-68
2024/01/09 05:30:45;;;;;;;4.95;4.55;;;17.30;55.80;;;;;;5091804;28;20200;-69
2024/01/09 05:33:11;;;;;;;5.15;4.65;;;17.30;63.10;;;;;;5107769;28;20193;-69
2024/01/09 05:35:37;;;;;;;5.13;4.63;;;17.30;53.40;;;;;;5086162;28;20284;-69
2024/01/09 05:38:03;;;;;;;4.93;4.40;;;17.30;54.00;;;;;;5076253;28;20181;-70
2024/01/09 05:40:28;;;;;;;5.15;4.70;;;17.30;53.90;;;;;;5098080;28;20216;-69
2024/01/09 05:42:54;;;;;;;5.28;4.78;;;17.30;53.90;;;;;;5096904;28;20299;-69
2024/01/09 05:45:20;;;;;;;5.30;4.80;;;17.30;54.00;;;;;;5073138;28;20212;-69
2024/01/09 05:47:45;;;;;;;4.97;4.53;;;17.30;54.00;;;;;;5096756;28;20188;-69
2024/01/09 05:50:11;;;;;;;5.30;4.80;;;17.30;53.80;;;;;;5078703;28;20193;-68
2024/01/09 05:52:38;;;;;;;5.05;4.65;;;17.30;53.80;;;;;;5078585;28;20188;-68
2024/01/09 05:55:07;;;;;;;5.35;4.85;;;17.30;54.00;;;;;;5091308;28;20224;-69
2024/01/09 05:57:33;;;;;;;5.40;4.90;;;;;;;;;;5095261;28;20248;-68
2024/01/09 05:59:59;;;;;;;5.10;4.65;;;17.30;53.40;;;;;;5096368;28;20180;-68
2024/01/09 06:02:27;;;;;;;5.45;4.90;;;17.20;53.80;;;;;;5093554;28;20263;-69
2024/01/09 06:04:53;;;;;;;5.13;4.63;;;17.20;53.80;;;;;;5098633;28;20259;-68
2024/01/09 06:07:20;;;;;;;5.20;4.70;;;17.20;53.80;;;;;;5082091;28;20176;-68
2024/01/09 06:09:46;;;;;;;5.60;4.90;;;17.20;53.80;;;;;;5093395;28;20254;-68
2024/01/09 06:12:12;;;;;;;5.40;4.90;;;17.20;53.70;;;;;;5082639;28;20181;-68
2024/01/09 06:14:38;;;;;;;5.20;4.70;;;17.20;53.80;;;;;;5092670;28;20215;-68
2024/01/09 06:17:04;;;;;;;5.43;4.93;;;17.30;53.80;;;;;;5092122;28;20192;-69
2024/01/09 06:19:31;;;;;;;5.18;4.72;;;17.20;53.70;;;;;;5082682;28;20188;-68
2024/01/09 06:21:57;;;;;;;5.65;4.88;;;17.20;53.80;;;;;;5099624;28;20180;-69
2024/01/09 06:24:23;;;;;;;5.32;4.82;;;17.20;53.70;;;;;;5100866;28;20219;-68
2024/01/09 06:26:49;;;;;;;5.55;5.05;;;17.20;53.70;;;;;;5096074;28;20177;-69
2024/01/09 06:29:15;;;;;;;5.93;5.32;;;17.20;53.70;;;;;;5082200;28;20296;-70
2024/01/09 06:31:40;;;;;;;6.05;5.47;;;17.20;54.20;;;;;;5092989;28;20181;-69
2024/01/09 06:34:07;;;;;;;5.45;4.95;;;17.20;53.80;;;;;;5082121;28;20215;-70
2024/01/09 06:36:33;;;;;;;6.00;5.45;;;17.20;54.30;;;;;;5100251;28;20235;-69
2024/01/09 06:38:59;;;;;;;5.85;5.13;;;17.20;53.70;;;;;;5081850;28;20188;-69
2024/01/09 06:41:24;;;;;;;5.68;5.18;;;17.20;53.70;;;;;;5081980;28;20181;-70
2024/01/09 06:43:50;;;;;;;5.32;4.88;;;17.20;53.80;;;;;;5098711;28;20204;-70
2024/01/09 06:46:16;;;;;;;6.00;5.40;;;17.20;53.60;;;;;;5099984;28;20192;-70
2024/01/09 06:48:42;;;;;;;5.43;4.93;;;17.20;53.60;;;;;;5108273;28;20183;-70
2024/01/09 06:51:08;;;;;;;5.55;5.05;;;17.20;53.50;;;;;;5091058;28;20189;-70
2024/01/09 06:53:34;;;;;;;6.03;5.43;;;17.20;53.60;;;;;;5114369;27;20703;-70
2024/01/09 06:56:00;;;;;;;6.00;5.40;;;17.20;53.50;;;;;;5098496;28;20260;-70
2024/01/09 06:58:25;;;;;;;5.05;4.55;;;17.20;53.50;;;;;;5109561;28;20181;-70
2024/01/09 07:00:51;;;;;;;5.57;5.07;;;17.20;53.50;;;;;;5075864;28;20195;-69
2024/01/09 07:03:17;;;;;;;5.53;5.00;;;17.20;53.50;;;;;;5100947;28;20189;-70
2024/01/09 07:05:42;;;;;;;5.68;5.05;;;17.20;53.50;;;;;;5103827;28;20188;-69
2024/01/09 07:08:08;;;;;;;5.43;4.95;;;17.20;53.50;;;;;;5104358;28;20283;-70
2024/01/09 07:10:34;;;;;;;5.40;4.90;;;17.30;53.50;;;;;;5101496;28;20192;-69
2024/01/09 07:13:00;;;;;;;5.43;4.93;;;17.20;53.50;;;;;;5087682;28;20187;-69
2024/01/09 07:15:26;;;;;;;5.40;4.90;;;17.30;53.50;;;;;;5081373;28;20224;-69
2024/01/09 07:17:52;;;;;;;5.78;5.18;;;17.30;53.60;;;;;;5080821;28;20195;-70
2024/01/09 07:20:18;;;;;;;6.43;5.82;;;17.30;53.60;;;;;;5086868;28;20177;-70
2024/01/09 07:22:44;;;;;;;5.28;4.78;;;17.30;53.60;;;;;;5101638;28;20188;-69
2024/01/09 07:25:10;;;;;;;5.07;4.57;;;17.30;53.60;;;;;;5086661;28;20202;-70
2024/01/09 07:27:36;;;;;;;5.32;4.93;;;17.30;53.60;;;;;;5106521;28;20191;-69
2024/01/09 07:30:02;;;;;;;5.63;5.03;;;17.30;53.60;;;;;;5106850;28;20191;-69
2024/01/09 07:32:28;;;;;;;5.20;4.70;;;17.30;53.50;;;;;;5100277;28;20189;-69
2024/01/09 07:34:54;;;;;;;5.25;4.80;;;17.30;53.60;;;;;;5100224;28;20268;-70
2024/01/09 07:37:20;;;;;;;5.60;5.10;;;17.30;53.60;;;;;;5078730;28;20193;-69
2024/01/09 07:39:45;;;;;;;5.93;5.32;;;17.30;53.60;;;;;;5096987;28;20183;-69
2024/01/09 07:42:14;;;;;;;5.40;4.90;;;17.30;53.60;;;;;;5092202;28;20185;-70
2024/01/09 07:44:40;;;;;;;5.78;5.25;;;17.30;53.60;;;;;;5096181;28;20215;-70
2024/01/09 07:47:11;;;;;;;5.63;5.13;;;17.30;53.50;;;;;;5079894;28;20256;-69
2024/01/09 07:49:38;;;;;;;5.47;4.97;;;17.30;53.60;;;;;;5100958;28;20180;-69
2024/01/09 07:52:04;;;;;;;5.63;5.13;;;17.20;53.40;;;;;;5089578;28;20189;-68
2024/01/09 07:54:30;;;;;;;5.95;5.45;;;17.20;53.50;;;;;;5098814;28;20200;-69
2024/01/09 07:56:56;;;;;;;6.47;5.60;;;17.30;53.60;;;;;;5103176;28;20609;-70
2024/01/09 07:59:22;;;;;;;5.55;4.85;;;17.20;53.40;;;;;;5098041;28;20263;-69
2024/01/09 08:01:55;;;;;;;5.95;5.35;;;17.20;53.50;;;;;;5087415;28;20183;-70
2024/01/09 08:04:22;;;;;;;6.00;5.40;;;17.20;53.50;;;;;;5080662;28;20211;-70
2024/01/09 08:06:52;;;;;;;6.25;5.60;;;17.20;53.40;;;;;;5119595;27;20189;-70
2024/01/09 08:09:20;;;;;;;5.90;5.35;;;17.20;53.40;;;;;;5110113;27;20189;-69
2024/01/09 08:11:47;;;;;;;6.28;5.68;;;17.30;53.40;;;;;;5082674;28;20208;-69
2024/01/09 08:14:14;;;;;;;5.78;5.10;;;17.30;53.50;;;;;;5087084;28;20652;-70
2024/01/09 08:16:40;;;;;;;5.78;5.28;;;17.20;53.50;;;;;;5083286;28;20272;-69
2024/01/09 08:19:07;;;;;;;6.78;5.53;;;17.20;53.50;;;;;;5071675;28;20653;-70
2024/01/09 08:21:36;;;;;;;6.07;5.47;;;17.30;53.50;;;;;;5093462;28;20169;-69
2024/01/09 08:24:03;;;;;;;5.85;5.35;;;17.30;53.60;;;;;;5113742;27;20231;-69
2024/01/09 08:26:30;;;;;;;5.72;5.10;;;17.30;53.60;;;;;;5078348;28;20242;-70
2024/01/09 08:28:56;;;;;;;6.25;5.65;;;17.30;53.50;;;;;;5099999;28;20271;-69
2024/01/09 08:31:22;;;;;;;5.45;4.95;;;17.20;53.50;;;;;;5087929;28;20188;-70
2024/01/09 08:33:48;;;;;;;5.80;5.20;;;17.20;53.50;;;;;;5094477;28;20246;-70
2024/01/09 08:36:17;;;;;;;5.88;5.25;;;17.20;53.40;;;;;;5095528;28;20585;-69
2024/01/09 08:38:42;;;;;;;6.22;5.63;;;17.20;53.40;;;;;;5098707;28;20172;-69
2024/01/09 08:41:10;;;;;;;6.47;5.88;;;17.20;54.00;;;;;;5090808;28;20189;-70
2024/01/09 08:43:36;;;;;;;6.07;5.47;;;17.20;53.40;;;;;;5094570;28;20197;-68
2024/01/09 08:46:01;;;;;;;6.45;5.60;;;17.20;53.40;;;;;;5078101;28;20214;-69
2024/01/09 08:48:27;;;;;;;6.05;5.45;;;17.20;53.40;;;;;;5080036;28;20192;-68
2024/01/09 08:50:53;;;;;;;6.43;5.75;;;17.20;53.40;;;;;;5098066;28;20230;-69
2024/01/09 08:53:20;;;;;;;6.03;5.43;;;17.20;53.40;;;;;;5086317;28;20261;-69
2024/01/09 08:55:46;;;;;;;5.88;5.38;;;17.20;53.40;;;;;;5090386;28;20260;-69
2024/01/09 08:58:11;;;;;;;6.68;6.07;;;17.20;53.40;;;;;;5090738;28;20269;-69
2024/01/09 09:00:37;;;;;;;5.85;5.28;;;17.20;53.30;;;;;;5107618;28;20643;-69
2024/01/09 09:03:03;;;;;;;6.10;5.55;;;17.20;53.30;;;;;;5080319;28;20220;-69
2024/01/09 09:05:29;;;;;;;5.97;5.38;;;17.20;53.30;;;;;;5096277;28;20212;-69
2024/01/09 09:07:55;;;;;;;6.50;5.90;;;17.20;53.30;;;;;;5094332;28;20207;-69
2024/01/09 09:10:20;;;;;;;5.65;5.15;;;17.30;53.40;;;;;;5094986;28;20736;-69
2024/01/09 09:12:47;;;;;;;6.25;5.65;;;17.30;53.30;;;;;;5079704;28;20182;-70
2024/01/09 09:15:13;;;;;;;6.10;5.60;;;17.30;53.40;;;;;;5099415;28;20209;-69
2024/01/09 09:17:39;;;;;;;6.47;5.70;;;17.30;53.30;;;;;;5090275;28;20199;-69
2024/01/09 09:20:06;;;;;;;5.70;5.20;;;17.30;53.30;;;;;;5089704;28;20770;-69
2024/01/09 09:22:33;;;;;;;6.30;5.70;;;17.30;53.20;;;;;;5076588;28;20181;-69
2024/01/09 09:24:59;;;;;;;5.70;5.20;;;17.30;53.20;;;;;;5089837;28;20223;-70
2024/01/09 09:27:25;;;;;;;6.57;5.88;;;17.30;53.30;;;;;;5101157;28;20200;-69
2024/01/09 09:29:52;;;;;;;5.95;5.35;;;17.30;53.30;;;;;;5083817;28;20249;-70
2024/01/09 09:32:18;;;;;;;6.20;5.60;;;17.30;53.30;;;;;;5093914;28;20242;-69
2024/01/09 09:34:44;;;;;;;6.28;5.68;;;17.30;53.30;;;;;;5086430;28;20251;-70
2024/01/09 09:37:11;;;;;;;6.20;5.60;;;17.30;53.30;;;;;;5094987;28;20193;-70
2024/01/09 09:39:37;;;;;;;6.07;5.43;;;17.30;53.20;;;;;;5107058;28;20184;-69
2024/01/09 09:42:03;;;;;;;5.88;5.38;;;17.30;53.20;;;;;;5076646;28;20184;-69
2024/01/09 09:44:28;;;;;;;5.93;5.43;;;17.30;53.20;;;;;;5104832;28;20200;-69
2024/01/09 09:46:56;;;;;;;6.63;6.03;;;17.30;53.20;;;;;;5099522;28;20184;-69
2024/01/09 09:49:22;;;;;;;6.15;5.55;;;17.30;53.20;;;;;;5098725;28;20234;-69
2024/01/09 09:51:53;;;;;;;5.93;5.28;;;17.30;53.20;;;;;;5117454;27;20253;-69
2024/01/09 09:54:19;;;;;;;6.30;5.70;;;17.40;53.20;;;;;;5097329;28;20266;-69
2024/01/09 09:56:46;;;;;;;5.95;5.32;;;17.40;53.30;;;;;;5097096;28;20184;-70
2024/01/09 09:59:12;;;;;;;6.13;5.53;;;17.30;53.10;;;;;;5102489;28;20185;-69
2024/01/09 10:01:40;;;;;;;6.07;5.50;;;17.30;53.20;;;;;;5103226;28;20180;-69
2024/01/09 10:04:29;;;;;;;6.63;6.03;;;17.40;53.20;;;;;;5076607;28;20201;-69
2024/01/09 10:06:58;;;;;;;6.28;5.68;;;17.30;53.20;;;;;;5096998;28;20196;-69
2024/01/09 10:09:33;;;;;;;6.60;5.90;;;17.30;53.20;;;;;;5094162;28;20187;-70
2024/01/09 10:11:59;;;;;;;5.95;5.38;;;17.30;53.20;;;;;;5103664;28;20193;-69
2024/01/09 10:14:25;;;;;;;6.50;5.65;;;17.30;53.20;;;;;;5102121;28;20220;-69
2024/01/09 10:16:53;;;;;;;6.60;6.03;;;17.30;53.20;;;;;;5097698;28;20253;-69
2024/01/09 10:19:22;;;;;;;6.75;6.15;;;17.30;53.10;;;;;;5096726;28;20181;-69
2024/01/09 10:21:49;;;;;;;7.00;6.32;;;17.30;53.20;;;;;;5101541;28;20619;-70
2024/01/09 10:24:16;;;;;;;6.18;5.57;;;17.30;53.20;;;;;;5087444;28;20277;-69
2024/01/09 10:26:43;;;;;;;6.80;6.05;;;17.30;53.20;;;;;;5088672;28;20193;-70
2024/01/09 10:29:12;;;;;;;6.55;5.85;;;17.30;53.10;;;;;;5090192;28;20237;-69
2024/01/09 10:31:40;;;;;;;6.03;5.43;;;17.30;53.10;;;;;;5099164;28;20233;-69
2024/01/09 10:34:07;;;;;;;6.60;6.00;;;17.30;53.10;;;;;;5110406;27;20209;-69
2024/01/09 10:36:32;;;;;;;6.70;6.00;;;17.30;53.10;;;;;;5105165;28;20209;-69
2024/01/09 10:39:06;;;;;;;6.18;5.57;;;17.30;53.20;;;;;;5080519;28;20278;-69
2024/01/09 10:41:33;;;;;;;6.80;5.82;;;17.30;53.20;;;;;;5089783;28;20558;-70
2024/01/09 10:44:02;;;;;;;6.13;5.53;;;17.30;53.20;;;;;;5098173;28;20215;-69
2024/01/09 10:46:31;;;;;;;5.80;5.18;;;17.30;53.20;;;;;;5090765;28;20181;-69
2024/01/09 10:49:00;;;;;;;6.93;6.25;;;17.30;53.20;;;;;;5097429;28;20184;-69
2024/01/09 10:51:27;;;;;;;6.55;5.47;;;17.30;53.20;;;;;;5096615;28;20205;-69
2024/01/09 10:53:56;;;;;;;6.88;6.18;;;17.30;53.20;;;;;;5094602;28;20220;-70
2024/01/09 10:56:21;;;;;;;6.65;6.05;;;17.30;53.20;;;;;;5089777;28;20185;-69
2024/01/09 10:58:50;;;;;;;6.30;5.70;;;17.30;53.20;;;;;;5112423;28;20329;-69
2024/01/09 11:01:16;;;;;;;5.80;5.30;;;17.30;53.10;;;;;;5096547;28;20275;-69
2024/01/09 11:03:43;;;;;;;6.43;5.82;;;17.30;53.00;;;;;;5108980;28;20212;-69
2024/01/09 11:06:09;;;;;;;6.88;6.28;;;17.40;53.20;;;;;;5118441;27;20197;-69
2024/01/09 11:08:36;;;;;;;6.50;5.82;;;17.30;53.10;;;;;;5110242;28;20196;-69
2024/01/09 11:11:07;;;;;;;6.10;5.43;;;17.30;53.10;;;;;;5097709;28;20188;-69
2024/01/09 11:13:37;;;;;;;6.78;6.18;;;17.30;53.70;;;;;;5095335;28;20228;-69
2024/01/09 11:16:07;;;;;;;6.35;5.78;;;17.30;53.10;;;;;;5102867;28;20204;-69
2024/01/09 11:18:34;;;;;;;6.45;5.85;;;17.30;53.10;;;;;;5098928;28;20200;-69
2024/01/09 11:21:02;;;;;;;6.45;5.80;;;17.30;53.10;;;;;;5082573;28;20188;-69
2024/01/09 11:23:43;;;;;;;6.30;5.70;;;17.30;53.20;;;;;;5071888;28;20208;-69
2024/01/09 11:26:12;;;;;;;6.25;5.65;;;17.30;53.10;;;;;;5090842;28;20189;-70
2024/01/09 11:28:42;;;;;;;6.38;5.78;;;17.30;53.10;;;;;;5091985;28;20271;-69
2024/01/09 11:31:12;;;;;;;7.00;6.30;;;17.30;53.10;;;;;;5094419;28;20189;-69
2024/01/09 11:33:41;;;;;;;6.90;6.03;;;17.30;53.80;;;;;;5107811;28;20204;-69
2024/01/09 11:36:09;;;;;;;6.53;5.90;;;17.30;53.10;;;;;;5095940;28;20193;-69
2024/01/09 11:38:37;;;;;;;7.25;6.55;;;17.30;53.10;;;;;;5109697;27;20192;-69
2024/01/09 11:41:09;;;;;;;6.40;5.80;;;17.40;53.20;;;;;;5093713;28;20184;-69
2024/01/09 11:44:03;;;;;;;6.28;5.70;;;17.30;53.10;;;;;;5091864;28;20213;-69
2024/01/09 11:46:35;;;;;;;6.85;6.15;;;17.30;53.10;;;;;;5089784;28;20189;-69
2024/01/09 11:49:02;;;;;;;6.65;5.95;;;17.30;53.10;;;;;;5071400;28;20220;-69
2024/01/09 11:51:31;;;;;;;6.72;6.13;;;17.40;53.20;;;;;;5072739;28;20185;-69
2024/01/09 11:54:00;;;;;;;6.40;5.80;;;17.30;53.10;;;;;;5101882;27;20294;-69
2024/01/09 11:56:28;;;;;;;6.57;5.88;;;17.30;53.10;;;;;;5103823;27;20213;-69
2024/01/09 11:58:54;;;;;;;5.93;5.30;;;17.30;53.10;;;;;;5093878;28;20212;-69
2024/01/09 12:01:21;;;;;;;5.93;5.43;;;17.30;53.10;;;;;;5108272;28;20181;-68
2024/01/09 12:03:56;;;;;;;6.75;6.15;;;17.30;53.20;;;;;;5094169;28;20232;-69
2024/01/09 12:06:24;;;;;;;6.05;5.55;;;17.40;53.30;;;;;;5087425;28;20187;-69
2024/01/09 12:08:52;;;;;;;6.57;5.60;;;17.40;53.20;;;;;;5090944;28;20222;-69
2024/01/09 12:11:18;;;;;;;6.07;5.50;;;17.30;53.10;;;;;;5108175;28;20191;-69
2024/01/09 12:13:44;;;;;;;7.25;6.00;;;17.30;53.00;;;;;;5090865;28;20208;-69
2024/01/09 12:16:22;;;;;;;5.88;5.28;;;17.30;53.00;;;;;;5066313;28;20259;-69
2024/01/09 12:18:55;;;;;;;6.85;6.15;;;17.40;53.20;;;;;;5087857;28;20262;-69
2024/01/09 12:21:24;;;;;;;6.68;6.00;;;17.30;53.10;;;;;;5100943;28;20251;-69
2024/01/09 12:23:51;;;;;;;7.03;6.35;;;17.40;53.10;;;;;;5094575;28;20201;-69
2024/01/09 12:26:20;;;;;;;6.40;5.80;;;17.40;53.10;;;;;;5090970;28;20197;-69
2024/01/09 12:28:48;;;;;;;6.25;5.65;;;17.40;53.20;;;;;;5077515;28;20189;-70
2024/01/09 12:31:22;;;;;;;6.22;5.60;;;17.40;53.20;;;;;;5080453;28;20189;-69
2024/01/09 12:33:48;;;;;;;6.20;5.60;;;17.40;53.20;;;;;;5088850;28;20216;-69
2024/01/09 12:36:17;;;;;;;7.05;6.35;;;17.40;53.20;;;;;;5091721;28;20231;-69
2024/01/09 12:38:43;;;;;;;6.45;5.85;;;17.30;53.10;;;;;;5092986;28;20181;-69
2024/01/09 12:41:09;;;;;;;7.03;6.32;;;17.40;53.30;;;;;;5073515;28;20207;-69
2024/01/09 12:43:36;;;;;;;6.75;6.15;;;17.40;53.30;;;;;;5090277;28;20312;-68
2024/01/09 12:46:04;;;;;;;6.53;5.93;;;17.40;53.30;;;;;;5087107;28;20172;-69